createdAt,value
2018-05-15T00:00:10.401Z,18.77
2018-05-15T00:02:37.972Z,18.93
2018-05-15T00:05:05.602Z,20.87
2018-05-15T00:07:33.178Z,19.30
2018-05-15T00:10:00.809Z,22.10
2018-05-15T00:12:28.425Z,21.83
2018-05-15T00:14:56.000Z,21.90
2018-05-15T00:17:23.637Z,22.33
2018-05-15T00:19:51.264Z,18.60
2018-05-15T00:22:18.945Z,19.60
2018-05-15T00:24:46.511Z,19.50
2018-05-15T00:27:14.137Z,18.13
2018-05-15T00:29:41.721Z,20.43
2018-05-15T00:32:09.344Z,20.93
2018-05-15T00:34:36.978Z,20.97
2018-05-15T00:37:04.540Z,20.63
2018-05-15T00:39:32.233Z,20.77
2018-05-15T00:41:59.797Z,20.60
2018-05-15T00:44:27.360Z,22.37
2018-05-15T00:46:54.997Z,21.47
2018-05-15T00:49:22.624Z,20.70
2018-05-15T00:51:50.196Z,21.03
2018-05-15T00:54:17.825Z,21.47
2018-05-15T00:56:45.452Z,24.00
2018-05-15T00:59:13.016Z,22.07
2018-05-15T01:01:40.601Z,23.23
2018-05-15T01:04:08.180Z,22.10
2018-05-15T01:06:35.756Z,21.57
2018-05-15T01:09:03.477Z,20.20
2018-05-15T01:11:31.044Z,20.20
2018-05-15T01:13:58.664Z,19.47
2018-05-15T01:16:26.232Z,20.43
2018-05-15T01:18:53.857Z,20.30
2018-05-15T01:21:21.428Z,20.27
2018-05-15T01:23:49.049Z,20.00
2018-05-15T01:26:16.685Z,20.43
2018-05-15T01:28:44.252Z,19.47
2018-05-15T01:31:11.916Z,22.17
2018-05-15T01:33:39.545Z,22.90
2018-05-15T01:36:07.091Z,22.00
2018-05-15T01:38:34.736Z,22.77
2018-05-15T01:41:02.307Z,24.57
2018-05-15T01:43:29.930Z,24.83
2018-05-15T01:45:57.566Z,23.57
2018-05-15T01:48:25.203Z,24.20
2018-05-15T01:50:52.780Z,29.00
2018-05-15T01:53:20.351Z,35.53
2018-05-15T01:55:48.052Z,30.33
2018-05-15T01:58:15.608Z,28.10
2018-05-15T02:00:43.234Z,25.60
2018-05-15T02:03:10.813Z,23.70
2018-05-15T02:05:38.352Z,24.87
2018-05-15T02:08:05.991Z,23.27
2018-05-15T02:10:33.617Z,25.73
2018-05-15T02:13:01.227Z,24.10
2018-05-15T02:15:28.871Z,25.40
2018-05-15T02:17:56.432Z,24.30
2018-05-15T02:20:23.982Z,25.87
2018-05-15T02:22:51.616Z,24.67
2018-05-15T02:25:19.271Z,21.47
2018-05-15T02:27:46.834Z,22.70
2018-05-15T02:30:14.514Z,21.03
2018-05-15T02:32:42.077Z,22.93
2018-05-15T02:35:09.653Z,26.00
2018-05-15T02:37:37.241Z,34.20
2018-05-15T02:40:04.861Z,32.60
2018-05-15T02:42:32.442Z,30.60
2018-05-15T02:45:00.031Z,37.20
2018-05-15T02:47:27.657Z,32.67
2018-05-15T02:49:55.236Z,31.90
2018-05-15T02:52:22.832Z,28.23
2018-05-15T02:54:50.414Z,31.50
2018-05-15T02:57:17.981Z,28.87
2018-05-15T02:59:45.594Z,29.20
2018-05-15T03:02:13.157Z,27.83
2018-05-15T03:04:40.785Z,25.67
2018-05-15T03:07:08.356Z,25.90
2018-05-15T03:09:35.916Z,24.27
2018-05-15T03:12:03.548Z,24.57
2018-05-15T03:14:31.181Z,24.87
2018-05-15T03:16:58.831Z,23.00
2018-05-15T03:19:26.401Z,23.67
2018-05-15T03:21:54.021Z,21.93
2018-05-15T03:24:21.640Z,22.00
2018-05-15T03:26:49.202Z,20.30
2018-05-15T03:29:16.780Z,22.03
2018-05-15T03:31:44.427Z,20.40
2018-05-15T03:34:12.013Z,20.67
2018-05-15T03:36:39.584Z,20.60
2018-05-15T03:39:07.262Z,20.70
2018-05-15T03:41:34.824Z,21.17
2018-05-15T03:44:02.445Z,20.93
2018-05-15T03:46:30.077Z,21.40
2018-05-15T03:48:57.623Z,21.00
2018-05-15T03:51:25.173Z,20.37
2018-05-15T03:53:52.727Z,21.77
2018-05-15T03:56:20.329Z,20.60
2018-05-15T03:58:47.945Z,21.40
2018-05-15T04:01:27.397Z,18.43
2018-05-15T04:04:06.563Z,21.73
2018-05-15T04:06:45.923Z,18.10
2018-05-15T04:09:13.506Z,15.10
2018-05-15T04:11:41.125Z,15.33
2018-05-15T04:14:08.692Z,14.37
2018-05-15T04:16:36.257Z,15.40
2018-05-15T04:19:04.737Z,13.80
2018-05-15T04:21:32.314Z,11.10
2018-05-15T04:24:00.014Z,9.50
2018-05-15T04:26:27.582Z,10.20
2018-05-15T04:28:55.265Z,8.50
2018-05-15T04:31:22.889Z,9.80
2018-05-15T04:33:50.510Z,8.67
2018-05-15T04:36:18.077Z,9.40
2018-05-15T04:38:45.640Z,8.63
2018-05-15T04:41:13.265Z,8.30
2018-05-15T04:43:40.957Z,8.03
2018-05-15T04:46:08.601Z,6.93
2018-05-15T04:48:36.164Z,7.10
2018-05-15T04:51:03.710Z,7.77
2018-05-15T04:53:31.276Z,7.30
2018-05-15T04:55:58.832Z,6.37
2018-05-15T04:58:26.404Z,6.63
2018-05-15T05:00:53.960Z,6.50
2018-05-15T05:03:21.579Z,6.37
2018-05-15T05:05:49.139Z,6.70
2018-05-15T05:08:16.771Z,7.10
2018-05-15T05:10:44.398Z,6.80
2018-05-15T05:13:11.952Z,5.90
2018-05-15T05:15:39.581Z,5.37
2018-05-15T05:18:07.141Z,6.00
2018-05-15T05:20:34.737Z,5.60
2018-05-15T05:23:02.354Z,6.50
2018-05-15T05:25:29.973Z,6.30
2018-05-15T05:27:57.537Z,5.70
2018-05-15T05:30:25.103Z,6.37
2018-05-15T05:32:52.723Z,5.63
2018-05-15T05:35:20.277Z,5.90
2018-05-15T05:37:47.832Z,5.30
2018-05-15T05:40:15.405Z,5.27
2018-05-15T05:42:42.961Z,5.40
2018-05-15T05:45:10.576Z,5.50
2018-05-15T05:47:38.193Z,8.60
2018-05-15T05:50:05.812Z,11.17
2018-05-15T05:52:33.457Z,6.07
2018-05-15T05:55:01.009Z,5.70
2018-05-15T05:57:28.728Z,6.17
2018-05-15T05:59:56.290Z,6.07
2018-05-15T06:02:23.889Z,5.03
2018-05-15T06:04:51.449Z,5.50
2018-05-15T06:07:19.034Z,5.50
2018-05-15T06:09:46.669Z,5.80
2018-05-15T06:12:14.220Z,5.80
2018-05-15T06:14:41.844Z,5.60
2018-05-15T06:17:09.424Z,6.27
2018-05-15T06:19:37.033Z,6.57
2018-05-15T06:22:04.649Z,5.80
2018-05-15T06:24:32.214Z,6.03
2018-05-15T06:26:59.784Z,5.60
2018-05-15T06:29:27.403Z,6.20
2018-05-15T06:31:55.021Z,5.27
2018-05-15T06:34:22.581Z,5.70
2018-05-15T06:36:50.189Z,5.10
2018-05-15T06:39:17.745Z,4.80
2018-05-15T06:41:45.310Z,5.57
2018-05-15T06:44:12.934Z,4.70
2018-05-15T06:46:40.558Z,5.47
2018-05-15T06:49:08.238Z,5.40
2018-05-15T06:51:35.856Z,6.00
2018-05-15T06:54:03.483Z,5.27
2018-05-15T06:56:31.034Z,4.87
2018-05-15T06:58:58.645Z,5.93
2018-05-15T07:01:26.204Z,5.17
2018-05-15T07:03:53.775Z,6.37
2018-05-15T07:06:21.402Z,6.27
2018-05-15T07:08:48.962Z,5.60
2018-05-15T07:11:16.516Z,6.40
2018-05-15T07:13:44.081Z,5.13
2018-05-15T07:16:11.649Z,5.60
2018-05-15T07:18:39.212Z,5.60
2018-05-15T07:21:06.757Z,5.33
2018-05-15T07:23:34.365Z,4.90
2018-05-15T07:26:01.926Z,5.00
2018-05-15T07:28:29.485Z,5.00
2018-05-15T07:30:57.114Z,4.73
2018-05-15T07:33:24.739Z,5.10
2018-05-15T07:35:52.304Z,4.87
2018-05-15T07:38:19.865Z,4.97
2018-05-15T07:40:47.481Z,5.60
2018-05-15T07:43:15.097Z,4.43
2018-05-15T07:45:42.655Z,4.77
2018-05-15T07:48:10.232Z,5.30
2018-05-15T07:50:37.787Z,5.00
2018-05-15T07:53:05.404Z,5.20
2018-05-15T07:55:32.964Z,4.27
2018-05-15T07:58:00.584Z,4.60
2018-05-15T08:00:28.200Z,4.27
2018-05-15T08:02:55.756Z,4.33
2018-05-15T08:05:23.324Z,5.20
2018-05-15T08:07:50.948Z,3.90
2018-05-15T08:10:18.520Z,3.80
2018-05-15T08:12:46.080Z,4.00
2018-05-15T08:15:13.767Z,4.50
2018-05-15T08:17:41.382Z,3.83
2018-05-15T08:20:08.938Z,3.73
2018-05-15T08:22:36.506Z,4.90
2018-05-15T08:25:04.078Z,4.10
2018-05-15T08:27:31.662Z,3.83
2018-05-15T08:29:59.216Z,3.50
2018-05-15T08:32:26.837Z,3.97
2018-05-15T08:34:54.400Z,3.30
2018-05-15T08:37:21.968Z,3.43
2018-05-15T08:39:49.559Z,3.53
2018-05-15T08:42:17.098Z,3.17
2018-05-15T08:44:44.675Z,5.13
2018-05-15T08:47:12.298Z,3.90
2018-05-15T08:49:39.968Z,3.70
2018-05-15T08:52:07.525Z,3.70
2018-05-15T08:54:35.084Z,3.40
2018-05-15T08:57:02.654Z,3.70
2018-05-15T08:59:30.215Z,4.30
2018-05-15T09:01:57.777Z,3.80
2018-05-15T09:04:25.339Z,4.10
2018-05-15T09:06:52.952Z,3.93
2018-05-15T09:09:20.504Z,3.40
2018-05-15T09:11:48.163Z,3.83
2018-05-15T09:14:15.734Z,3.30
2018-05-15T09:16:43.288Z,3.43
2018-05-15T09:19:10.881Z,3.97
2018-05-15T09:21:38.478Z,4.20
2018-05-15T09:24:06.097Z,4.10
2018-05-15T09:26:33.652Z,3.70
2018-05-15T09:29:01.265Z,3.50
2018-05-15T09:31:28.889Z,4.83
2018-05-15T09:33:56.446Z,3.50
2018-05-15T09:36:24.106Z,3.37
2018-05-15T09:38:51.597Z,3.47
2018-05-15T09:41:19.358Z,3.60
2018-05-15T09:44:01.744Z,3.73
2018-05-15T09:46:29.368Z,3.73
2018-05-15T09:48:56.927Z,3.70
2018-05-15T09:51:24.555Z,3.43
2018-05-15T09:53:52.130Z,3.30
2018-05-15T09:56:19.683Z,3.60
2018-05-15T09:58:47.254Z,4.37
2018-05-15T10:01:14.869Z,3.60
2018-05-15T10:03:42.444Z,3.10
2018-05-15T10:06:10.061Z,4.00
2018-05-15T10:08:37.676Z,3.03
2018-05-15T10:11:05.238Z,3.47
2018-05-15T10:13:32.793Z,4.30
2018-05-15T10:16:00.416Z,4.00
2018-05-15T10:18:27.977Z,4.17
2018-05-15T10:20:55.540Z,4.07
2018-05-15T10:23:23.166Z,4.67
2018-05-15T10:25:50.849Z,4.20
2018-05-15T10:28:18.404Z,4.00
2018-05-15T10:30:45.961Z,4.00
2018-05-15T10:33:13.528Z,4.90
2018-05-15T10:35:41.152Z,4.70
2018-05-15T10:38:08.765Z,4.40
2018-05-15T10:40:36.380Z,4.67
2018-05-15T10:43:03.991Z,4.80
2018-05-15T10:45:31.662Z,4.60
2018-05-15T10:47:59.231Z,5.27
2018-05-15T10:50:26.810Z,4.80
2018-05-15T10:52:54.390Z,4.87
2018-05-15T10:55:21.960Z,4.57
2018-05-15T10:57:49.529Z,4.45
2018-05-15T11:00:17.140Z,4.87
2018-05-15T11:02:44.757Z,4.85
2018-05-15T11:05:12.320Z,4.40
2018-05-15T11:07:39.957Z,4.62
2018-05-15T11:10:07.558Z,4.00
2018-05-15T11:12:35.244Z,4.30
2018-05-15T11:15:02.795Z,5.20
2018-05-15T11:17:30.464Z,4.55
2018-05-15T11:20:09.765Z,4.50
2018-05-15T11:22:49.282Z,4.43
2018-05-15T11:25:16.840Z,4.67
2018-05-15T11:27:44.457Z,4.97
2018-05-15T11:30:12.037Z,4.68
2018-05-15T11:32:39.596Z,4.37
2018-05-15T11:35:07.146Z,4.53
2018-05-15T11:37:34.772Z,4.03
2018-05-15T11:40:02.385Z,4.12
2018-05-15T11:42:29.943Z,3.72
2018-05-15T11:44:57.500Z,3.30
2018-05-15T11:47:25.198Z,3.53
2018-05-15T11:49:53.831Z,4.55
2018-05-15T11:52:21.305Z,4.35
2018-05-15T11:54:47.917Z,3.78
2018-05-15T11:57:15.532Z,4.18
2018-05-15T11:59:43.109Z,3.12
2018-05-15T12:02:10.666Z,3.17
2018-05-15T12:04:38.246Z,3.35
2018-05-15T12:07:05.887Z,4.30
2018-05-15T12:09:33.526Z,3.33
2018-05-15T12:12:01.145Z,3.40
2018-05-15T12:14:28.714Z,3.92
2018-05-15T12:16:56.289Z,3.78
2018-05-15T12:19:23.841Z,3.70
2018-05-15T12:21:51.403Z,3.90
2018-05-15T12:24:18.960Z,3.97
2018-05-15T12:26:46.598Z,3.53
2018-05-15T12:29:14.218Z,4.30
2018-05-15T12:31:41.879Z,3.30
2018-05-15T12:34:09.519Z,4.00
2018-05-15T12:36:37.072Z,3.87
2018-05-15T12:39:04.717Z,3.80
2018-05-15T12:41:32.370Z,3.70
2018-05-15T12:43:59.895Z,3.67
2018-05-15T12:46:27.515Z,3.70
2018-05-15T12:48:55.085Z,3.42
2018-05-15T12:51:22.652Z,3.60
2018-05-15T12:53:50.213Z,3.67
2018-05-15T12:56:17.817Z,4.10
2018-05-15T12:58:45.380Z,4.33
2018-05-15T13:01:12.932Z,3.77
2018-05-15T13:03:40.493Z,3.40
2018-05-15T13:06:08.053Z,3.20
2018-05-15T13:08:35.733Z,4.05
2018-05-15T13:11:03.293Z,3.42
2018-05-15T13:13:30.853Z,3.72
2018-05-15T13:15:58.477Z,3.83
2018-05-15T13:18:26.115Z,3.08
2018-05-15T13:20:53.816Z,2.90
2018-05-15T13:23:21.348Z,3.83
2018-05-15T13:25:48.904Z,3.30
2018-05-15T13:28:16.471Z,3.28
2018-05-15T13:30:44.077Z,3.42
2018-05-15T13:33:11.637Z,3.30
2018-05-15T13:35:39.200Z,3.87
2018-05-15T13:38:06.804Z,3.62
2018-05-15T13:40:34.367Z,4.25
2018-05-15T13:43:01.985Z,3.47
2018-05-15T13:45:29.620Z,3.03
2018-05-15T13:47:57.273Z,3.42
2018-05-15T13:50:24.894Z,3.15
2018-05-15T13:52:52.450Z,3.50
2018-05-15T13:55:20.064Z,3.37
2018-05-15T13:57:47.639Z,4.20
2018-05-15T14:00:15.193Z,4.33
2018-05-15T14:02:42.821Z,4.27
2018-05-15T14:05:10.376Z,3.53
2018-05-15T14:07:37.988Z,5.67
2018-05-15T14:10:05.549Z,3.63
2018-05-15T14:12:33.155Z,3.20
2018-05-15T14:15:00.712Z,4.77
2018-05-15T14:17:28.271Z,4.67
2018-05-15T14:19:55.836Z,3.50
2018-05-15T14:22:23.401Z,5.03
2018-05-15T14:24:51.019Z,4.40
2018-05-15T14:27:18.577Z,4.53
2018-05-15T14:29:46.189Z,4.27
2018-05-15T14:32:13.760Z,4.30
2018-05-15T14:34:41.332Z,4.73
2018-05-15T14:37:08.961Z,4.80
2018-05-15T14:39:36.558Z,4.43
2018-05-15T14:42:15.998Z,3.97
2018-05-15T14:44:43.617Z,4.70
2018-05-15T14:47:11.241Z,4.50
2018-05-15T14:49:38.796Z,4.30
2018-05-15T14:52:06.409Z,4.50
2018-05-15T14:54:34.163Z,4.13
2018-05-15T14:57:01.720Z,4.33
2018-05-15T14:59:29.331Z,4.00
2018-05-15T15:01:56.963Z,4.50
2018-05-15T15:04:24.530Z,4.23
2018-05-15T15:06:52.357Z,4.30
2018-05-15T15:09:19.956Z,3.47
2018-05-15T15:11:48.448Z,4.27
2018-05-15T15:14:16.001Z,4.67
2018-05-15T15:16:43.630Z,4.33
2018-05-15T15:19:11.203Z,4.47
2018-05-15T15:21:38.775Z,3.80
2018-05-15T15:24:06.340Z,3.50
2018-05-15T15:26:33.967Z,3.27
2018-05-15T15:29:01.532Z,4.20
2018-05-15T15:31:29.144Z,4.00
2018-05-15T15:33:57.004Z,3.17
2018-05-15T15:36:24.698Z,4.20
2018-05-15T15:38:52.239Z,3.60
2018-05-15T15:41:19.812Z,3.33
2018-05-15T15:43:47.401Z,3.70
2018-05-15T15:46:15.113Z,3.83
2018-05-15T15:48:42.677Z,3.77
2018-05-15T15:51:10.293Z,3.90
2018-05-15T15:53:37.904Z,4.07
2018-05-15T15:56:05.544Z,3.37
2018-05-15T15:58:33.214Z,4.00
2018-05-15T16:01:00.829Z,4.37
2018-05-15T16:03:28.384Z,3.80
2018-05-15T16:05:55.930Z,3.70
2018-05-15T16:08:23.541Z,3.93
2018-05-15T16:10:51.108Z,3.80
2018-05-15T16:13:18.724Z,3.93
2018-05-15T16:15:46.396Z,4.13
2018-05-15T16:18:13.966Z,4.10
2018-05-15T16:20:41.581Z,4.70
2018-05-15T16:23:09.211Z,3.90
2018-05-15T16:25:36.838Z,4.43
2018-05-15T16:28:04.513Z,4.00
2018-05-15T16:30:32.134Z,4.30
2018-05-15T16:32:59.744Z,4.20
2018-05-15T16:35:27.316Z,4.40
2018-05-15T16:37:54.872Z,3.50
2018-05-15T16:40:22.438Z,4.07
2018-05-15T16:42:50.000Z,4.20
2018-05-15T16:45:17.625Z,3.83
2018-05-15T16:47:45.266Z,4.57
2018-05-15T16:50:12.896Z,5.10
2018-05-15T16:52:40.528Z,4.80
2018-05-15T16:55:08.036Z,4.03
2018-05-15T16:57:35.598Z,4.70
2018-05-15T17:00:03.269Z,5.10
2018-05-15T17:02:30.953Z,4.40
2018-05-15T17:04:58.516Z,4.10
2018-05-15T17:07:26.101Z,4.07
2018-05-15T17:09:53.732Z,4.40
2018-05-15T17:12:21.288Z,5.00
2018-05-15T17:14:48.910Z,4.97
2018-05-15T17:17:16.535Z,4.47
2018-05-15T17:19:44.097Z,4.70
2018-05-15T17:22:11.679Z,4.33
2018-05-15T17:24:39.245Z,3.90
2018-05-15T17:27:06.917Z,4.37
2018-05-15T17:29:34.467Z,4.30
2018-05-15T17:32:02.020Z,4.70
2018-05-15T17:34:29.591Z,4.40
2018-05-15T17:36:57.153Z,4.70
2018-05-15T17:39:24.830Z,4.67
2018-05-15T17:41:52.384Z,4.83
2018-05-15T17:44:20.005Z,4.40
2018-05-15T17:46:47.580Z,4.80
2018-05-15T17:49:15.159Z,4.80
2018-05-15T17:51:42.720Z,4.47
2018-05-15T17:54:10.272Z,4.13
2018-05-15T17:56:37.880Z,4.83
2018-05-15T17:59:05.527Z,3.80
2018-05-15T18:01:33.093Z,5.17
2018-05-15T18:04:00.717Z,3.90
2018-05-15T18:06:28.291Z,4.17
2018-05-15T18:08:55.860Z,4.90
2018-05-15T18:11:23.425Z,3.10
2018-05-15T18:13:51.040Z,3.77
2018-05-15T18:16:18.606Z,4.77
2018-05-15T18:18:46.224Z,3.57
2018-05-15T18:21:13.864Z,4.80
2018-05-15T18:23:41.493Z,4.53
2018-05-15T18:26:09.187Z,4.30
2018-05-15T18:28:36.743Z,3.80
2018-05-15T18:31:04.417Z,4.20
2018-05-15T18:33:32.038Z,3.80
2018-05-15T18:35:59.601Z,4.17
2018-05-15T18:38:27.168Z,4.67
2018-05-15T18:40:54.720Z,4.00
2018-05-15T18:43:22.292Z,4.57
2018-05-15T18:45:49.921Z,4.80
2018-05-15T18:48:17.540Z,4.70
2018-05-15T18:50:45.157Z,4.93
2018-05-15T18:53:12.721Z,5.10
2018-05-15T18:55:40.355Z,5.60
2018-05-15T18:58:07.917Z,5.53
2018-05-15T19:00:35.556Z,5.50
2018-05-15T19:03:03.120Z,7.60
2018-05-15T19:05:30.746Z,5.00
2018-05-15T19:07:58.401Z,5.07
2018-05-15T19:10:26.043Z,5.40
2018-05-15T19:12:53.588Z,5.70
2018-05-15T19:15:21.156Z,6.30
2018-05-15T19:17:48.801Z,12.20
2018-05-15T19:20:16.366Z,6.70
2018-05-15T19:22:43.985Z,6.43
2018-05-15T19:25:11.549Z,7.67
2018-05-15T19:27:39.090Z,4.83
2018-05-15T19:30:06.649Z,4.87
2018-05-15T19:32:39.096Z,4.60
2018-05-15T19:35:07.589Z,5.13
2018-05-15T19:37:35.149Z,4.90
2018-05-15T19:40:08.336Z,4.60
2018-05-15T19:42:36.013Z,5.33
2018-05-15T19:45:03.698Z,4.67
2018-05-15T19:47:31.319Z,4.90
2018-05-15T19:49:58.872Z,4.03
2018-05-15T19:52:26.443Z,3.70
2018-05-15T19:54:54.011Z,4.97
2018-05-15T19:57:21.630Z,4.27
2018-05-15T19:59:49.261Z,4.83
2018-05-15T20:02:16.820Z,4.40
2018-05-15T20:04:44.392Z,5.07
2018-05-15T20:07:12.023Z,4.43
2018-05-15T20:09:39.657Z,4.57
2018-05-15T20:12:07.259Z,5.03
2018-05-15T20:14:34.876Z,4.73
2018-05-15T20:17:02.432Z,4.10
2018-05-15T20:19:29.992Z,5.13
2018-05-15T20:21:57.562Z,5.00
2018-05-15T20:24:25.124Z,5.70
2018-05-15T20:26:52.751Z,4.73
2018-05-15T20:29:20.382Z,4.80
2018-05-15T20:31:48.060Z,5.37
2018-05-15T20:34:15.681Z,5.40
2018-05-15T20:36:43.241Z,4.97
2018-05-15T20:39:10.868Z,5.60
2018-05-15T20:41:38.436Z,4.80
2018-05-15T20:44:06.064Z,7.87
2018-05-15T20:46:33.652Z,6.07
2018-05-15T20:49:01.327Z,5.70
2018-05-15T20:51:28.888Z,5.70
2018-05-15T20:53:56.527Z,6.53
2018-05-15T20:56:24.104Z,5.90
2018-05-15T20:58:51.720Z,5.30
2018-05-15T21:01:19.348Z,5.07
2018-05-15T21:03:46.908Z,6.07
2018-05-15T21:06:14.584Z,5.53
2018-05-15T21:08:42.209Z,5.70
2018-05-15T21:11:09.825Z,4.80
2018-05-15T21:13:37.380Z,6.40
2018-05-15T21:16:04.942Z,4.67
2018-05-15T21:18:32.509Z,5.00
2018-05-15T21:21:00.073Z,5.00
2018-05-15T21:23:27.730Z,5.27
2018-05-15T21:25:55.279Z,5.23
2018-05-15T21:28:22.860Z,5.93
2018-05-15T21:30:50.428Z,5.97
2018-05-15T21:33:17.988Z,5.60
2018-05-15T21:35:45.561Z,5.93
2018-05-15T21:38:13.122Z,5.50
2018-05-15T21:40:40.732Z,5.17
2018-05-15T21:43:08.292Z,5.13
2018-05-15T21:45:35.921Z,5.50
2018-05-15T21:48:03.502Z,5.43
2018-05-15T21:50:31.114Z,5.37
2018-05-15T21:52:58.680Z,5.57
2018-05-15T21:55:26.244Z,5.47
2018-05-15T21:57:53.943Z,5.90
2018-05-15T22:00:21.560Z,5.33
2018-05-15T22:02:49.219Z,5.80
2018-05-15T22:05:16.853Z,4.70
2018-05-15T22:07:44.412Z,5.80
2018-05-15T22:10:12.049Z,5.30
2018-05-15T22:12:51.477Z,5.10
2018-05-15T22:15:30.949Z,5.03
2018-05-15T22:18:10.204Z,5.07
2018-05-15T22:20:49.632Z,5.50
2018-05-15T22:23:16.650Z,4.53
2018-05-15T22:25:44.317Z,5.20
2018-05-15T22:28:11.929Z,4.87
2018-05-15T22:30:39.488Z,5.30
2018-05-15T22:33:07.126Z,5.70
2018-05-15T22:35:34.679Z,4.33
2018-05-15T22:38:02.254Z,4.70
2018-05-15T22:40:29.827Z,5.50
2018-05-15T22:42:57.436Z,4.50
2018-05-15T22:45:25.032Z,4.73
2018-05-15T22:47:52.598Z,5.60
2018-05-15T22:50:20.172Z,5.57
2018-05-15T22:52:47.788Z,5.73
2018-05-15T22:55:15.413Z,5.63
2018-05-15T22:57:42.972Z,6.10
2018-05-15T23:00:10.638Z,4.93
2018-05-15T23:02:38.257Z,4.47
2018-05-15T23:05:05.823Z,5.77
2018-05-15T23:07:33.388Z,4.97
2018-05-15T23:10:01.111Z,5.40
2018-05-15T23:12:28.752Z,6.87
2018-05-15T23:14:56.369Z,5.70
2018-05-15T23:17:23.988Z,5.80
2018-05-15T23:19:51.622Z,6.80
2018-05-15T23:22:30.892Z,5.87
2018-05-15T23:24:58.453Z,5.60
2018-05-15T23:27:26.084Z,5.27
2018-05-15T23:29:53.652Z,5.53
2018-05-15T23:32:21.288Z,5.13
2018-05-15T23:34:48.880Z,5.27
2018-05-15T23:37:16.444Z,4.60
2018-05-15T23:39:44.117Z,4.60
2018-05-15T23:42:11.733Z,5.63
2018-05-15T23:44:39.297Z,5.07
2018-05-15T23:47:06.928Z,4.80
2018-05-15T23:49:34.493Z,5.93
2018-05-15T23:52:02.164Z,4.73
2018-05-15T23:54:29.729Z,4.23
2018-05-15T23:56:57.349Z,4.77
2018-05-15T23:59:24.920Z,4.00
